sensor_id;sensor_type;location;lat;lon;timestamp;temperature;humidity
3705;DHT22;1868;48.918;9.438;2024-01-15T00:00:07;-0.90;97.40
3705;DHT22;1868;48.918;9.438;2024-01-15T00:02:36;-0.90;97.40
3705;DHT22;1868;48.918;9.438;2024-01-15T00:05:05;-0.90;97.40
3705;DHT22;1868;48.918;9.438;2024-01-15T00:07:35;-0.90;97.40
3705;DHT22;1868;48.918;9.438;2024-01-15T00:10:04;-0.80;97.40
3705;DHT22;1868;48.918;9.438;2024-01-15T00:12:33;-0.80;97.40
3705;DHT22;1868;48.918;9.438;2024-01-15T00:15:05;-0.80;97.40
3705;DHT22;1868;48.918;9.438;2024-01-15T00:17:35;-0.80;97.40
3705;DHT22;1868;48.918;9.438;2024-01-15T00:20:04;-0.90;97.40
3705;DHT22;1868;48.918;9.438;2024-01-15T00:22:33;-0.80;97.40
3705;DHT22;1868;48.918;9.438;2024-01-15T00:25:04;-0.90;97.40
3705;DHT22;1868;48.918;9.438;2024-01-15T00:27:36;-0.90;97.40
3705;DHT22;1868;48.918;9.438;2024-01-15T00:30:06;-0.80;97.40
3705;DHT22;1868;48.918;9.438;2024-01-15T00:32:35;-0.80;97.40
3705;DHT22;1868;48.918;9.438;2024-01-15T00:35:05;-0.80;97.40
3705;DHT22;1868;48.918;9.438;2024-01-15T00:37:37;-0.80;97.40
3705;DHT22;1868;48.918;9.438;2024-01-15T00:40:07;-0.80;97.40
3705;DHT22;1868;48.918;9.438;2024-01-15T00:42:37;-0.80;97.40
3705;DHT22;1868;48.918;9.438;2024-01-15T00:45:06;-0.80;97.40
3705;DHT22;1868;48.918;9.438;2024-01-15T00:47:35;-0.70;97.40
3705;DHT22;1868;48.918;9.438;2024-01-15T00:50:05;-0.80;97.40
3705;DHT22;1868;48.918;9.438;2024-01-15T00:52:34;-0.70;97.40
3705;DHT22;1868;48.918;9.438;2024-01-15T00:55:03;-0.80;97.40
3705;DHT22;1868;48.918;9.438;2024-01-15T00:57:37;-0.80;97.40
3705;DHT22;1868;48.918;9.438;2024-01-15T01:00:07;-0.80;97.40
3705;DHT22;1868;48.918;9.438;2024-01-15T01:02:37;-0.90;97.40
3705;DHT22;1868;48.918;9.438;2024-01-15T01:05:06;-0.90;97.40
3705;DHT22;1868;48.918;9.438;2024-01-15T01:07:34;-1.00;97.40
3705;DHT22;1868;48.918;9.438;2024-01-15T01:10:04;-0.90;97.40
3705;DHT22;1868;48.918;9.438;2024-01-15T01:12:34;-0.90;97.40
3705;DHT22;1868;48.918;9.438;2024-01-15T01:15:07;-0.90;97.40
3705;DHT22;1868;48.918;9.438;2024-01-15T01:17:35;-0.80;97.40
3705;DHT22;1868;48.918;9.438;2024-01-15T01:20:06;-0.80;97.40
3705;DHT22;1868;48.918;9.438;2024-01-15T01:22:39;-0.80;97.40
3705;DHT22;1868;48.918;9.438;2024-01-15T01:25:08;-0.80;97.40
3705;DHT22;1868;48.918;9.438;2024-01-15T01:27:37;-0.70;97.40
3705;DHT22;1868;48.918;9.438;2024-01-15T01:30:09;-0.70;97.40
3705;DHT22;1868;48.918;9.438;2024-01-15T01:32:39;-0.70;97.40
3705;DHT22;1868;48.918;9.438;2024-01-15T01:35:08;-0.60;97.40
3705;DHT22;1868;48.918;9.438;2024-01-15T01:37:37;-0.60;97.40
3705;DHT22;1868;48.918;9.438;2024-01-15T01:40:07;-0.60;97.40
3705;DHT22;1868;48.918;9.438;2024-01-15T01:42:36;-0.60;97.40
3705;DHT22;1868;48.918;9.438;2024-01-15T01:45:08;-0.60;97.40
3705;DHT22;1868;48.918;9.438;2024-01-15T01:47:37;-0.60;97.40
3705;DHT22;1868;48.918;9.438;2024-01-15T01:50:07;-0.60;97.40
3705;DHT22;1868;48.918;9.438;2024-01-15T01:52:36;-0.60;97.40
3705;DHT22;1868;48.918;9.438;2024-01-15T01:55:06;-0.50;97.40
3705;DHT22;1868;48.918;9.438;2024-01-15T01:57:35;-0.50;97.40
3705;DHT22;1868;48.918;9.438;2024-01-15T02:00:10;-0.50;97.40
3705;DHT22;1868;48.918;9.438;2024-01-15T02:02:40;-0.50;97.40
3705;DHT22;1868;48.918;9.438;2024-01-15T02:05:09;-0.40;97.40
3705;DHT22;1868;48.918;9.438;2024-01-15T02:07:38;-0.40;97.40
3705;DHT22;1868;48.918;9.438;2024-01-15T02:10:08;-0.40;97.40
3705;DHT22;1868;48.918;9.438;2024-01-15T02:12:38;-0.40;97.40
3705;DHT22;1868;48.918;9.438;2024-01-15T02:15:08;-0.30;97.40
3705;DHT22;1868;48.918;9.438;2024-01-15T02:17:58;-0.30;97.40
3705;DHT22;1868;48.918;9.438;2024-01-15T02:20:28;-0.30;97.40
3705;DHT22;1868;48.918;9.438;2024-01-15T02:23:06;-0.30;97.40
3705;DHT22;1868;48.918;9.438;2024-01-15T02:25:38;-0.30;97.40
3705;DHT22;1868;48.918;9.438;2024-01-15T02:28:10;-0.20;97.40
3705;DHT22;1868;48.918;9.438;2024-01-15T02:30:40;-0.20;97.40
3705;DHT22;1868;48.918;9.438;2024-01-15T02:33:11;-0.20;97.40
3705;DHT22;1868;48.918;9.438;2024-01-15T02:35:41;-0.20;97.40
3705;DHT22;1868;48.918;9.438;2024-01-15T02:38:11;-0.20;97.40
3705;DHT22;1868;48.918;9.438;2024-01-15T02:40:39;-0.20;97.40
3705;DHT22;1868;48.918;9.438;2024-01-15T02:43:08;-0.10;97.40
3705;DHT22;1868;48.918;9.438;2024-01-15T02:45:37;-0.20;97.40
3705;DHT22;1868;48.918;9.438;2024-01-15T02:48:06;-0.10;97.40
3705;DHT22;1868;48.918;9.438;2024-01-15T02:50:34;-0.10;97.40
3705;DHT22;1868;48.918;9.438;2024-01-15T02:53:04;0.00;97.40
3705;DHT22;1868;48.918;9.438;2024-01-15T02:55:34;0.00;97.40
3705;DHT22;1868;48.918;9.438;2024-01-15T02:58:03;0.00;97.40
3705;DHT22;1868;48.918;9.438;2024-01-15T03:00:33;0.00;97.40
3705;DHT22;1868;48.918;9.438;2024-01-15T03:03:02;0.00;97.40
3705;DHT22;1868;48.918;9.438;2024-01-15T03:05:31;0.10;97.40
3705;DHT22;1868;48.918;9.438;2024-01-15T03:08:00;0.10;97.40
3705;DHT22;1868;48.918;9.438;2024-01-15T03:10:29;0.10;97.40
3705;DHT22;1868;48.918;9.438;2024-01-15T03:13:00;0.10;97.40
3705;DHT22;1868;48.918;9.438;2024-01-15T03:15:29;0.10;97.40
3705;DHT22;1868;48.918;9.438;2024-01-15T03:17:57;0.20;97.40
3705;DHT22;1868;48.918;9.438;2024-01-15T03:20:26;0.20;97.40
3705;DHT22;1868;48.918;9.438;2024-01-15T03:22:54;0.20;97.40
3705;DHT22;1868;48.918;9.438;2024-01-15T03:25:25;0.20;97.40
3705;DHT22;1868;48.918;9.438;2024-01-15T03:27:54;0.20;97.40
3705;DHT22;1868;48.918;9.438;2024-01-15T03:30:24;0.30;97.40
3705;DHT22;1868;48.918;9.438;2024-01-15T03:32:53;0.30;97.40
3705;DHT22;1868;48.918;9.438;2024-01-15T03:35:21;0.30;97.40
3705;DHT22;1868;48.918;9.438;2024-01-15T03:37:50;0.30;97.40
3705;DHT22;1868;48.918;9.438;2024-01-15T03:40:18;0.30;97.40
3705;DHT22;1868;48.918;9.438;2024-01-15T03:42:49;0.30;97.40
3705;DHT22;1868;48.918;9.438;2024-01-15T03:45:18;0.30;97.40
3705;DHT22;1868;48.918;9.438;2024-01-15T03:47:48;0.30;97.40
3705;DHT22;1868;48.918;9.438;2024-01-15T03:50:16;0.20;97.40
3705;DHT22;1868;48.918;9.438;2024-01-15T03:52:45;0.20;97.40
3705;DHT22;1868;48.918;9.438;2024-01-15T03:55:14;0.20;97.40
3705;DHT22;1868;48.918;9.438;2024-01-15T03:57:43;0.20;97.40
3705;DHT22;1868;48.918;9.438;2024-01-15T04:00:14;0.20;97.40
3705;DHT22;1868;48.918;9.438;2024-01-15T04:02:44;0.20;97.40
3705;DHT22;1868;48.918;9.438;2024-01-15T04:05:14;0.20;97.40
3705;DHT22;1868;48.918;9.438;2024-01-15T04:07:43;0.20;97.40
3705;DHT22;1868;48.918;9.438;2024-01-15T04:10:12;0.20;97.40
3705;DHT22;1868;48.918;9.438;2024-01-15T04:12:41;0.10;97.40
3705;DHT22;1868;48.918;9.438;2024-01-15T04:15:09;0.20;97.40
3705;DHT22;1868;48.918;9.438;2024-01-15T04:17:38;0.20;97.40
3705;DHT22;1868;48.918;9.438;2024-01-15T04:20:08;0.20;97.40
3705;DHT22;1868;48.918;9.438;2024-01-15T04:22:39;0.20;97.40
3705;DHT22;1868;48.918;9.438;2024-01-15T04:25:08;0.20;97.40
3705;DHT22;1868;48.918;9.438;2024-01-15T04:27:36;0.20;97.40
3705;DHT22;1868;48.918;9.438;2024-01-15T04:30:06;0.20;97.40
3705;DHT22;1868;48.918;9.438;2024-01-15T04:32:35;0.20;97.40
3705;DHT22;1868;48.918;9.438;2024-01-15T04:35:04;0.20;97.40
3705;DHT22;1868;48.918;9.438;2024-01-15T04:37:33;0.20;97.40
3705;DHT22;1868;48.918;9.438;2024-01-15T04:40:08;0.20;97.40
3705;DHT22;1868;48.918;9.438;2024-01-15T04:42:37;0.30;97.40
3705;DHT22;1868;48.918;9.438;2024-01-15T04:45:06;0.40;97.40
3705;DHT22;1868;48.918;9.438;2024-01-15T04:47:35;0.30;97.40
3705;DHT22;1868;48.918;9.438;2024-01-15T04:50:05;0.30;97.40
3705;DHT22;1868;48.918;9.438;2024-01-15T04:52:34;0.30;97.40
3705;DHT22;1868;48.918;9.438;2024-01-15T04:55:03;0.30;97.40
3705;DHT22;1868;48.918;9.438;2024-01-15T04:57:34;0.30;97.40
3705;DHT22;1868;48.918;9.438;2024-01-15T05:00:03;0.30;97.40
3705;DHT22;1868;48.918;9.438;2024-01-15T05:02:34;0.30;97.40
3705;DHT22;1868;48.918;9.438;2024-01-15T05:05:03;0.30;97.40
3705;DHT22;1868;48.918;9.438;2024-01-15T05:07:32;0.40;97.40
3705;DHT22;1868;48.918;9.438;2024-01-15T05:10:00;0.40;97.40
3705;DHT22;1868;48.918;9.438;2024-01-15T05:12:29;0.40;97.40
3705;DHT22;1868;48.918;9.438;2024-01-15T05:14:59;0.50;97.40
3705;DHT22;1868;48.918;9.438;2024-01-15T05:17:27;0.50;97.40
3705;DHT22;1868;48.918;9.438;2024-01-15T05:19:55;0.50;97.40
3705;DHT22;1868;48.918;9.438;2024-01-15T05:22:23;0.50;97.40
3705;DHT22;1868;48.918;9.438;2024-01-15T05:24:52;0.50;97.40
3705;DHT22;1868;48.918;9.438;2024-01-15T05:27:21;0.50;97.40
3705;DHT22;1868;48.918;9.438;2024-01-15T05:29:49;0.50;97.40
3705;DHT22;1868;48.918;9.438;2024-01-15T05:32:19;0.50;97.40
3705;DHT22;1868;48.918;9.438;2024-01-15T05:34:47;0.50;97.40
3705;DHT22;1868;48.918;9.438;2024-01-15T05:37:17;0.50;97.40
3705;DHT22;1868;48.918;9.438;2024-01-15T05:39:45;0.60;97.40
3705;DHT22;1868;48.918;9.438;2024-01-15T05:42:14;0.60;97.40
3705;DHT22;1868;48.918;9.438;2024-01-15T05:44:42;0.60;97.40
3705;DHT22;1868;48.918;9.438;2024-01-15T05:47:11;0.60;97.40
3705;DHT22;1868;48.918;9.438;2024-01-15T05:49:42;0.60;97.40
3705;DHT22;1868;48.918;9.438;2024-01-15T05:52:10;0.60;97.40
3705;DHT22;1868;48.918;9.438;2024-01-15T05:54:39;0.60;97.40
3705;DHT22;1868;48.918;9.438;2024-01-15T05:57:07;0.60;97.40
3705;DHT22;1868;48.918;9.438;2024-01-15T05:59:36;0.60;97.40
3705;DHT22;1868;48.918;9.438;2024-01-15T06:02:04;0.60;97.40
3705;DHT22;1868;48.918;9.438;2024-01-15T06:04:34;0.60;97.40
3705;DHT22;1868;48.918;9.438;2024-01-15T06:07:05;0.60;97.40
3705;DHT22;1868;48.918;9.438;2024-01-15T06:09:34;0.60;97.40
3705;DHT22;1868;48.918;9.438;2024-01-15T06:12:03;0.60;97.40
3705;DHT22;1868;48.918;9.438;2024-01-15T06:14:32;0.60;97.40
3705;DHT22;1868;48.918;9.438;2024-01-15T06:17:00;0.60;97.40
3705;DHT22;1868;48.918;9.438;2024-01-15T06:19:30;0.60;97.40
3705;DHT22;1868;48.918;9.438;2024-01-15T06:21:59;0.60;97.40
3705;DHT22;1868;48.918;9.438;2024-01-15T06:24:29;0.70;97.40
3705;DHT22;1868;48.918;9.438;2024-01-15T06:26:58;0.70;97.40
3705;DHT22;1868;48.918;9.438;2024-01-15T06:29:27;0.70;97.40
3705;DHT22;1868;48.918;9.438;2024-01-15T06:31:56;0.70;97.40
3705;DHT22;1868;48.918;9.438;2024-01-15T06:34:25;0.70;97.40
3705;DHT22;1868;48.918;9.438;2024-01-15T06:36:53;0.70;97.40
3705;DHT22;1868;48.918;9.438;2024-01-15T06:39:22;0.80;97.40
3705;DHT22;1868;48.918;9.438;2024-01-15T06:41:52;0.80;97.40
3705;DHT22;1868;48.918;9.438;2024-01-15T06:44:20;0.80;97.40
3705;DHT22;1868;48.918;9.438;2024-01-15T06:46:48;0.80;97.40
3705;DHT22;1868;48.918;9.438;2024-01-15T06:49:18;0.80;97.40
3705;DHT22;1868;48.918;9.438;2024-01-15T06:51:47;0.80;97.40
3705;DHT22;1868;48.918;9.438;2024-01-15T06:54:18;0.80;97.40
3705;DHT22;1868;48.918;9.438;2024-01-15T06:56:47;0.90;97.40
3705;DHT22;1868;48.918;9.438;2024-01-15T06:59:17;0.90;97.40
3705;DHT22;1868;48.918;9.438;2024-01-15T07:01:46;0.90;97.40
3705;DHT22;1868;48.918;9.438;2024-01-15T07:04:15;0.90;97.40
3705;DHT22;1868;48.918;9.438;2024-01-15T07:06:44;0.90;97.40
3705;DHT22;1868;48.918;9.438;2024-01-15T07:09:15;0.90;97.40
3705;DHT22;1868;48.918;9.438;2024-01-15T07:11:47;0.90;97.40
3705;DHT22;1868;48.918;9.438;2024-01-15T07:14:17;0.90;97.40
3705;DHT22;1868;48.918;9.438;2024-01-15T07:16:45;0.90;97.40
3705;DHT22;1868;48.918;9.438;2024-01-15T07:19:14;1.00;97.40
3705;DHT22;1868;48.918;9.438;2024-01-15T07:21:44;0.90;97.40
3705;DHT22;1868;48.918;9.438;2024-01-15T07:24:12;1.00;97.40
3705;DHT22;1868;48.918;9.438;2024-01-15T07:26:41;1.00;97.40
3705;DHT22;1868;48.918;9.438;2024-01-15T07:29:10;1.10;97.40
3705;DHT22;1868;48.918;9.438;2024-01-15T07:31:40;1.10;97.40
3705;DHT22;1868;48.918;9.438;2024-01-15T07:34:08;1.10;97.40
3705;DHT22;1868;48.918;9.438;2024-01-15T07:36:37;1.20;97.40
3705;DHT22;1868;48.918;9.438;2024-01-15T07:39:06;1.20;97.40
3705;DHT22;1868;48.918;9.438;2024-01-15T07:41:35;1.20;97.40
3705;DHT22;1868;48.918;9.438;2024-01-15T07:44:07;1.30;97.40
3705;DHT22;1868;48.918;9.438;2024-01-15T07:46:39;1.30;97.40
3705;DHT22;1868;48.918;9.438;2024-01-15T07:49:08;1.30;97.40
3705;DHT22;1868;48.918;9.438;2024-01-15T07:51:37;1.40;97.40
3705;DHT22;1868;48.918;9.438;2024-01-15T07:54:07;1.50;97.40
3705;DHT22;1868;48.918;9.438;2024-01-15T07:56:53;1.50;97.40
3705;DHT22;1868;48.918;9.438;2024-01-15T07:59:24;1.50;97.40
3705;DHT22;1868;48.918;9.438;2024-01-15T08:01:54;1.50;97.40
3705;DHT22;1868;48.918;9.438;2024-01-15T08:04:23;1.60;97.40
3705;DHT22;1868;48.918;9.438;2024-01-15T08:06:51;1.60;97.40
3705;DHT22;1868;48.918;9.438;2024-01-15T08:09:20;1.60;97.40
3705;DHT22;1868;48.918;9.438;2024-01-15T08:11:49;1.60;97.40
3705;DHT22;1868;48.918;9.438;2024-01-15T08:14:17;1.70;97.40
3705;DHT22;1868;48.918;9.438;2024-01-15T08:16:46;1.70;97.40
3705;DHT22;1868;48.918;9.438;2024-01-15T08:19:16;1.70;97.40
3705;DHT22;1868;48.918;9.438;2024-01-15T08:21:46;1.70;97.40
3705;DHT22;1868;48.918;9.438;2024-01-15T08:24:17;1.70;97.40
3705;DHT22;1868;48.918;9.438;2024-01-15T08:26:46;1.80;97.40
3705;DHT22;1868;48.918;9.438;2024-01-15T08:29:15;1.80;97.40
3705;DHT22;1868;48.918;9.438;2024-01-15T08:31:45;1.80;97.40
3705;DHT22;1868;48.918;9.438;2024-01-15T08:34:16;1.90;97.40
3705;DHT22;1868;48.918;9.438;2024-01-15T08:36:44;1.90;97.40
3705;DHT22;1868;48.918;9.438;2024-01-15T08:39:13;1.90;97.40
3705;DHT22;1868;48.918;9.438;2024-01-15T08:41:43;2.00;97.40
3705;DHT22;1868;48.918;9.438;2024-01-15T08:44:13;2.00;97.40
3705;DHT22;1868;48.918;9.438;2024-01-15T08:46:42;2.00;97.40
3705;DHT22;1868;48.918;9.438;2024-01-15T08:49:10;2.10;97.40
3705;DHT22;1868;48.918;9.438;2024-01-15T08:51:42;2.10;97.40
3705;DHT22;1868;48.918;9.438;2024-01-15T08:54:11;2.10;97.40
3705;DHT22;1868;48.918;9.438;2024-01-15T08:56:40;2.20;97.40
3705;DHT22;1868;48.918;9.438;2024-01-15T08:59:08;2.20;97.40
3705;DHT22;1868;48.918;9.438;2024-01-15T09:01:38;2.30;97.40
3705;DHT22;1868;48.918;9.438;2024-01-15T09:04:07;2.30;97.40
3705;DHT22;1868;48.918;9.438;2024-01-15T09:06:38;2.30;97.40
3705;DHT22;1868;48.918;9.438;2024-01-15T09:09:09;2.30;97.40
3705;DHT22;1868;48.918;9.438;2024-01-15T09:11:38;2.30;97.40
3705;DHT22;1868;48.918;9.438;2024-01-15T09:14:09;2.30;97.40
3705;DHT22;1868;48.918;9.438;2024-01-15T09:16:41;2.40;97.40
3705;DHT22;1868;48.918;9.438;2024-01-15T09:19:09;2.40;97.40
3705;DHT22;1868;48.918;9.438;2024-01-15T09:21:38;2.40;97.40
3705;DHT22;1868;48.918;9.438;2024-01-15T09:24:12;2.40;97.40
3705;DHT22;1868;48.918;9.438;2024-01-15T09:26:41;2.50;97.40
3705;DHT22;1868;48.918;9.438;2024-01-15T09:29:09;2.50;97.40
3705;DHT22;1868;48.918;9.438;2024-01-15T09:31:38;2.60;97.40
3705;DHT22;1868;48.918;9.438;2024-01-15T09:34:07;2.60;97.40
3705;DHT22;1868;48.918;9.438;2024-01-15T09:36:39;2.60;97.40
3705;DHT22;1868;48.918;9.438;2024-01-15T09:39:11;2.70;97.40
3705;DHT22;1868;48.918;9.438;2024-01-15T09:41:40;2.70;97.40
3705;DHT22;1868;48.918;9.438;2024-01-15T09:44:08;2.70;97.40
3705;DHT22;1868;48.918;9.438;2024-01-15T09:46:39;2.70;97.40
3705;DHT22;1868;48.918;9.438;2024-01-15T09:49:09;2.70;97.40
3705;DHT22;1868;48.918;9.438;2024-01-15T09:51:39;2.80;97.40
3705;DHT22;1868;48.918;9.438;2024-01-15T09:54:12;2.80;97.40
3705;DHT22;1868;48.918;9.438;2024-01-15T09:56:45;2.90;97.40
3705;DHT22;1868;48.918;9.438;2024-01-15T09:59:15;2.90;97.40
3705;DHT22;1868;48.918;9.438;2024-01-15T10:01:45;3.00;97.40
3705;DHT22;1868;48.918;9.438;2024-01-15T10:04:14;3.10;97.40
3705;DHT22;1868;48.918;9.438;2024-01-15T10:06:45;3.10;97.40
3705;DHT22;1868;48.918;9.438;2024-01-15T10:09:17;3.10;97.40
3705;DHT22;1868;48.918;9.438;2024-01-15T10:11:45;3.10;97.40
3705;DHT22;1868;48.918;9.438;2024-01-15T10:14:14;3.10;97.40
3705;DHT22;1868;48.918;9.438;2024-01-15T10:16:45;3.20;97.40
3705;DHT22;1868;48.918;9.438;2024-01-15T10:19:14;3.20;97.40
3705;DHT22;1868;48.918;9.438;2024-01-15T10:21:43;3.20;97.40
3705;DHT22;1868;48.918;9.438;2024-01-15T10:24:13;3.20;97.40
3705;DHT22;1868;48.918;9.438;2024-01-15T10:26:43;3.20;97.40
3705;DHT22;1868;48.918;9.438;2024-01-15T10:29:12;3.20;97.40
3705;DHT22;1868;48.918;9.438;2024-01-15T10:31:43;3.30;97.40
3705;DHT22;1868;48.918;9.438;2024-01-15T10:34:13;3.30;97.40
3705;DHT22;1868;48.918;9.438;2024-01-15T10:36:45;3.30;97.40
3705;DHT22;1868;48.918;9.438;2024-01-15T10:39:19;3.20;97.40
3705;DHT22;1868;48.918;9.438;2024-01-15T10:41:50;3.20;97.40
3705;DHT22;1868;48.918;9.438;2024-01-15T10:44:19;3.20;97.40
3705;DHT22;1868;48.918;9.438;2024-01-15T10:46:47;3.20;97.40
3705;DHT22;1868;48.918;9.438;2024-01-15T10:49:18;3.20;97.40
3705;DHT22;1868;48.918;9.438;2024-01-15T10:51:55;3.30;97.40
3705;DHT22;1868;48.918;9.438;2024-01-15T10:54:27;3.20;97.40
3705;DHT22;1868;48.918;9.438;2024-01-15T10:56:57;3.20;97.40
3705;DHT22;1868;48.918;9.438;2024-01-15T10:59:26;3.30;97.40
3705;DHT22;1868;48.918;9.438;2024-01-15T11:01:56;3.30;97.40
3705;DHT22;1868;48.918;9.438;2024-01-15T11:04:25;3.30;97.40
3705;DHT22;1868;48.918;9.438;2024-01-15T11:06:56;3.30;97.40
3705;DHT22;1868;48.918;9.438;2024-01-15T11:09:24;3.30;97.40
3705;DHT22;1868;48.918;9.438;2024-01-15T11:12:09;3.30;97.40
3705;DHT22;1868;48.918;9.438;2024-01-15T11:14:39;3.30;97.40
3705;DHT22;1868;48.918;9.438;2024-01-15T11:17:12;3.30;97.40
3705;DHT22;1868;48.918;9.438;2024-01-15T11:19:45;3.20;97.40
3705;DHT22;1868;48.918;9.438;2024-01-15T11:25:19;3.00;97.40
3705;DHT22;1868;48.918;9.438;2024-01-15T11:27:51;3.00;97.40
3705;DHT22;1868;48.918;9.438;2024-01-15T11:30:25;2.90;97.40
3705;DHT22;1868;48.918;9.438;2024-01-15T11:32:55;2.80;97.40
3705;DHT22;1868;48.918;9.438;2024-01-15T11:35:48;2.80;97.40
3705;DHT22;1868;48.918;9.438;2024-01-15T11:38:27;2.70;97.40
3705;DHT22;1868;48.918;9.438;2024-01-15T11:40:58;2.60;97.40
3705;DHT22;1868;48.918;9.438;2024-01-15T11:43:30;2.60;97.40
3705;DHT22;1868;48.918;9.438;2024-01-15T11:46:02;2.60;97.40
3705;DHT22;1868;48.918;9.438;2024-01-15T11:48:43;2.50;97.40
3705;DHT22;1868;48.918;9.438;2024-01-15T11:51:12;2.50;97.40
3705;DHT22;1868;48.918;9.438;2024-01-15T11:53:44;2.50;97.40
3705;DHT22;1868;48.918;9.438;2024-01-15T11:56:15;2.50;97.40
3705;DHT22;1868;48.918;9.438;2024-01-15T11:58:47;2.50;97.40
3705;DHT22;1868;48.918;9.438;2024-01-15T12:01:18;2.50;97.40
3705;DHT22;1868;48.918;9.438;2024-01-15T12:03:47;2.50;97.40
3705;DHT22;1868;48.918;9.438;2024-01-15T12:06:16;2.50;97.40
3705;DHT22;1868;48.918;9.438;2024-01-15T12:08:45;2.50;97.40
3705;DHT22;1868;48.918;9.438;2024-01-15T12:11:16;2.40;97.40
3705;DHT22;1868;48.918;9.438;2024-01-15T12:13:48;2.40;97.40
3705;DHT22;1868;48.918;9.438;2024-01-15T12:16:19;2.40;97.40
3705;DHT22;1868;48.918;9.438;2024-01-15T12:18:48;2.40;97.40
3705;DHT22;1868;48.918;9.438;2024-01-15T12:21:17;2.40;97.40
3705;DHT22;1868;48.918;9.438;2024-01-15T12:23:47;2.40;97.40
3705;DHT22;1868;48.918;9.438;2024-01-15T12:26:19;2.40;97.40
3705;DHT22;1868;48.918;9.438;2024-01-15T12:28:50;2.40;97.40
3705;DHT22;1868;48.918;9.438;2024-01-15T12:31:23;2.40;97.40
3705;DHT22;1868;48.918;9.438;2024-01-15T12:33:53;2.40;97.40
3705;DHT22;1868;48.918;9.438;2024-01-15T12:36:22;2.30;97.40
3705;DHT22;1868;48.918;9.438;2024-01-15T12:38:50;2.30;97.40
3705;DHT22;1868;48.918;9.438;2024-01-15T12:41:19;2.20;97.40
3705;DHT22;1868;48.918;9.438;2024-01-15T12:43:50;2.20;97.40
3705;DHT22;1868;48.918;9.438;2024-01-15T12:46:18;2.20;97.40
3705;DHT22;1868;48.918;9.438;2024-01-15T12:48:52;2.20;97.40
3705;DHT22;1868;48.918;9.438;2024-01-15T12:51:24;2.10;97.40
3705;DHT22;1868;48.918;9.438;2024-01-15T12:53:53;2.10;97.40
3705;DHT22;1868;48.918;9.438;2024-01-15T12:56:23;2.10;97.40
3705;DHT22;1868;48.918;9.438;2024-01-15T12:58:56;2.10;97.40
3705;DHT22;1868;48.918;9.438;2024-01-15T13:01:25;2.10;97.40
3705;DHT22;1868;48.918;9.438;2024-01-15T13:03:54;2.10;97.40
3705;DHT22;1868;48.918;9.438;2024-01-15T13:06:23;2.10;97.40
3705;DHT22;1868;48.918;9.438;2024-01-15T13:08:51;2.10;97.40
3705;DHT22;1868;48.918;9.438;2024-01-15T13:11:20;2.10;97.40
3705;DHT22;1868;48.918;9.438;2024-01-15T13:13:48;2.10;97.40
3705;DHT22;1868;48.918;9.438;2024-01-15T13:16:19;2.10;97.40
3705;DHT22;1868;48.918;9.438;2024-01-15T13:18:51;2.10;97.40
3705;DHT22;1868;48.918;9.438;2024-01-15T13:21:20;2.10;97.40
3705;DHT22;1868;48.918;9.438;2024-01-15T13:23:48;2.10;97.40
3705;DHT22;1868;48.918;9.438;2024-01-15T13:26:17;2.10;97.40
3705;DHT22;1868;48.918;9.438;2024-01-15T13:28:47;2.10;97.40
3705;DHT22;1868;48.918;9.438;2024-01-15T13:31:17;2.10;97.40
3705;DHT22;1868;48.918;9.438;2024-01-15T13:33:46;2.20;97.40
3705;DHT22;1868;48.918;9.438;2024-01-15T13:36:16;2.20;97.40
3705;DHT22;1868;48.918;9.438;2024-01-15T13:38:44;2.20;97.40
3705;DHT22;1868;48.918;9.438;2024-01-15T13:41:13;2.10;97.40
3705;DHT22;1868;48.918;9.438;2024-01-15T13:43:42;2.10;97.40
3705;DHT22;1868;48.918;9.438;2024-01-15T13:46:11;2.10;97.40
3705;DHT22;1868;48.918;9.438;2024-01-15T13:48:41;2.20;97.40
3705;DHT22;1868;48.918;9.438;2024-01-15T13:51:10;2.20;97.40
3705;DHT22;1868;48.918;9.438;2024-01-15T13:53:39;2.20;97.40
3705;DHT22;1868;48.918;9.438;2024-01-15T13:56:08;2.30;97.40
3705;DHT22;1868;48.918;9.438;2024-01-15T13:58:39;2.30;97.40
3705;DHT22;1868;48.918;9.438;2024-01-15T14:01:08;2.30;97.40
3705;DHT22;1868;48.918;9.438;2024-01-15T14:03:38;2.40;97.40
3705;DHT22;1868;48.918;9.438;2024-01-15T14:06:09;2.40;97.40
3705;DHT22;1868;48.918;9.438;2024-01-15T14:08:38;2.40;97.40
3705;DHT22;1868;48.918;9.438;2024-01-15T14:11:08;2.40;97.40
3705;DHT22;1868;48.918;9.438;2024-01-15T14:13:38;2.30;97.40
3705;DHT22;1868;48.918;9.438;2024-01-15T14:16:08;2.30;97.40
3705;DHT22;1868;48.918;9.438;2024-01-15T14:18:40;2.20;97.40
3705;DHT22;1868;48.918;9.438;2024-01-15T14:21:11;2.20;97.40
3705;DHT22;1868;48.918;9.438;2024-01-15T14:23:40;2.20;97.40
3705;DHT22;1868;48.918;9.438;2024-01-15T14:26:09;2.20;97.40
3705;DHT22;1868;48.918;9.438;2024-01-15T14:28:42;2.30;97.40
3705;DHT22;1868;48.918;9.438;2024-01-15T14:31:16;2.30;97.40
3705;DHT22;1868;48.918;9.438;2024-01-15T14:33:45;2.30;97.40
3705;DHT22;1868;48.918;9.438;2024-01-15T14:36:15;2.30;97.40
3705;DHT22;1868;48.918;9.438;2024-01-15T14:38:44;2.30;97.40
3705;DHT22;1868;48.918;9.438;2024-01-15T14:41:13;2.30;97.40
3705;DHT22;1868;48.918;9.438;2024-01-15T14:43:43;2.20;97.40
3705;DHT22;1868;48.918;9.438;2024-01-15T14:46:13;2.20;97.40
3705;DHT22;1868;48.918;9.438;2024-01-15T14:48:41;2.30;97.40
3705;DHT22;1868;48.918;9.438;2024-01-15T14:51:12;2.20;97.40
3705;DHT22;1868;48.918;9.438;2024-01-15T14:53:42;2.20;97.40
3705;DHT22;1868;48.918;9.438;2024-01-15T14:56:11;2.20;97.40
3705;DHT22;1868;48.918;9.438;2024-01-15T14:58:44;2.20;97.40
3705;DHT22;1868;48.918;9.438;2024-01-15T15:01:12;2.10;97.40
3705;DHT22;1868;48.918;9.438;2024-01-15T15:03:43;2.10;97.40
3705;DHT22;1868;48.918;9.438;2024-01-15T15:06:12;2.10;97.40
3705;DHT22;1868;48.918;9.438;2024-01-15T15:08:42;2.10;97.40
3705;DHT22;1868;48.918;9.438;2024-01-15T15:11:11;2.10;97.40
3705;DHT22;1868;48.918;9.438;2024-01-15T15:13:40;2.10;97.40
3705;DHT22;1868;48.918;9.438;2024-01-15T15:16:12;2.00;97.40
3705;DHT22;1868;48.918;9.438;2024-01-15T15:18:41;2.00;97.40
3705;DHT22;1868;48.918;9.438;2024-01-15T15:21:11;2.00;97.40
3705;DHT22;1868;48.918;9.438;2024-01-15T15:23:41;2.00;97.40
3705;DHT22;1868;48.918;9.438;2024-01-15T15:26:10;2.00;97.40
3705;DHT22;1868;48.918;9.438;2024-01-15T15:28:41;2.00;97.40
3705;DHT22;1868;48.918;9.438;2024-01-15T15:31:10;2.00;97.40
3705;DHT22;1868;48.918;9.438;2024-01-15T15:33:39;1.90;97.40
3705;DHT22;1868;48.918;9.438;2024-01-15T15:36:08;1.90;97.40
3705;DHT22;1868;48.918;9.438;2024-01-15T15:38:37;1.90;97.40
3705;DHT22;1868;48.918;9.438;2024-01-15T15:41:07;1.90;97.40
3705;DHT22;1868;48.918;9.438;2024-01-15T15:43:36;1.90;97.40
3705;DHT22;1868;48.918;9.438;2024-01-15T15:46:04;1.90;97.40
3705;DHT22;1868;48.918;9.438;2024-01-15T15:48:33;1.90;97.40
3705;DHT22;1868;48.918;9.438;2024-01-15T15:51:03;1.90;97.40
3705;DHT22;1868;48.918;9.438;2024-01-15T15:53:32;1.90;97.40
3705;DHT22;1868;48.918;9.438;2024-01-15T15:56:00;1.90;97.40
3705;DHT22;1868;48.918;9.438;2024-01-15T15:58:30;1.90;97.40
3705;DHT22;1868;48.918;9.438;2024-01-15T16:00:59;1.80;97.40
3705;DHT22;1868;48.918;9.438;2024-01-15T16:03:29;1.80;97.40
3705;DHT22;1868;48.918;9.438;2024-01-15T16:05:59;1.80;97.40
3705;DHT22;1868;48.918;9.438;2024-01-15T16:08:29;1.80;97.40
3705;DHT22;1868;48.918;9.438;2024-01-15T16:10:58;1.80;97.40
3705;DHT22;1868;48.918;9.438;2024-01-15T16:13:26;1.80;97.40
3705;DHT22;1868;48.918;9.438;2024-01-15T16:15:58;1.80;97.40
3705;DHT22;1868;48.918;9.438;2024-01-15T16:18:46;1.80;97.40
3705;DHT22;1868;48.918;9.438;2024-01-15T16:21:35;1.80;97.40
3705;DHT22;1868;48.918;9.438;2024-01-15T16:24:24;1.70;97.40
3705;DHT22;1868;48.918;9.438;2024-01-15T16:27:08;1.70;97.40
3705;DHT22;1868;48.918;9.438;2024-01-15T16:29:41;1.70;97.40
3705;DHT22;1868;48.918;9.438;2024-01-15T16:32:10;1.70;97.40
3705;DHT22;1868;48.918;9.438;2024-01-15T16:34:39;1.70;97.40